Time;durP1;ratioP1;P1;durP2;ratioP2;P2;SDS_P1;SDS_P2;PMS_P1;PMS_P2;Temp;Humidity;BMP_temperature;BMP_pressure;BME280_temperature;BME280_humidity;BME280_pressure;Samples;Min_cycle;Max_cycle;Signal;HPM_P1;HPM_P2
2022/12/08 00:00:55;;;;;;;9.87;4.20;;;2.40;99.90;;;;;;5116038;28;20489;-63
2022/12/08 00:03:22;;;;;;;4.07;3.33;;;2.50;99.90;;;;;;5115429;28;20454;-52
2022/12/08 00:11:20;;;;;;;4.87;2.47;;;2.50;99.90;;;;;;5115670;28;20405;-57
2022/12/08 00:13:47;;;;;;;4.30;2.50;;;2.50;99.90;;;;;;5115222;28;20445;-56
2022/12/08 00:16:14;;;;;;;7.13;2.13;;;2.50;99.90;;;;;;5114852;28;20442;-60
2022/12/08 00:18:41;;;;;;;5.60;3.17;;;2.60;99.90;;;;;;5114980;28;20499;-57
2022/12/08 00:21:11;;;;;;;3.57;2.07;;;2.60;99.90;;;;;;5114804;28;20429;-58
2022/12/08 00:23:42;;;;;;;3.20;1.67;;;2.60;99.90;;;;;;5114403;28;20475;-56
2022/12/08 00:26:11;;;;;;;4.17;2.27;;;2.60;99.90;;;;;;5114856;28;20422;-54
2022/12/08 00:28:38;;;;;;;4.30;2.57;;;2.60;99.90;;;;;;5114518;28;20457;-60
2022/12/08 00:31:11;;;;;;;2.40;1.50;;;2.60;99.90;;;;;;5115120;28;20437;-56
2022/12/08 00:33:41;;;;;;;2.73;1.77;;;2.60;99.90;;;;;;5115031;28;20453;-60
2022/12/08 00:36:09;;;;;;;3.27;2.37;;;2.60;99.90;;;;;;5115506;28;20452;-58
2022/12/08 00:38:40;;;;;;;3.83;2.73;;;2.60;99.90;;;;;;5115449;28;20450;-59
2022/12/08 00:41:13;;;;;;;5.93;2.60;;;2.60;99.90;;;;;;5116015;28;20441;-58
2022/12/08 00:43:41;;;;;;;8.87;2.53;;;2.60;99.90;;;;;;5115752;28;20430;-56
2022/12/08 00:46:08;;;;;;;4.20;2.83;;;2.60;99.90;;;;;;5116079;28;20556;-57
2022/12/08 00:48:36;;;;;;;3.80;2.63;;;2.60;99.90;;;;;;5114519;28;20441;-56
2022/12/08 00:51:03;;;;;;;6.07;3.70;;;2.60;99.90;;;;;;5115004;28;20437;-59
2022/12/08 00:53:31;;;;;;;5.73;3.20;;;2.60;99.90;;;;;;5114080;28;20446;-56
2022/12/08 00:56:01;;;;;;;3.70;2.80;;;2.60;99.90;;;;;;5114657;28;20487;-54
2022/12/08 00:58:32;;;;;;;6.83;2.40;;;2.60;99.90;;;;;;5114993;28;20469;-57
2022/12/08 01:00:59;;;;;;;4.00;2.87;;;2.70;99.90;;;;;;5114654;28;20486;-55
2022/12/08 01:03:26;;;;;;;2.60;1.63;;;2.70;99.90;;;;;;5112291;28;20437;-58
2022/12/08 01:05:53;;;;;;;9.20;3.70;;;2.80;99.90;;;;;;5114222;28;20475;-59
2022/12/08 01:08:20;;;;;;;5.23;2.77;;;2.70;99.90;;;;;;5114328;28;20461;-56
2022/12/08 01:10:47;;;;;;;5.10;2.63;;;2.70;99.90;;;;;;5114843;28;20449;-59
2022/12/08 01:13:13;;;;;;;5.63;2.60;;;2.70;99.90;;;;;;5114873;28;20429;-61
2022/12/08 01:15:42;;;;;;;10.07;4.93;;;2.70;99.90;;;;;;5114614;28;20500;-58
2022/12/08 01:18:12;;;;;;;4.70;2.50;;;2.80;99.90;;;;;;5117180;28;20482;-59
2022/12/08 01:20:38;;;;;;;8.23;3.67;;;2.70;99.90;;;;;;5118775;28;20483;-56
2022/12/08 01:23:05;;;;;;;4.47;2.50;;;2.70;99.90;;;;;;5117766;28;20452;-57
2022/12/08 01:25:34;;;;;;;10.23;3.53;;;2.70;99.90;;;;;;5118026;28;20500;-57
2022/12/08 01:28:01;;;;;;;6.10;3.10;;;2.70;99.90;;;;;;5117801;28;20449;-57
2022/12/08 01:30:28;;;;;;;4.17;2.60;;;2.70;99.90;;;;;;5117102;28;20530;-58
2022/12/08 01:32:57;;;;;;;4.57;2.33;;;2.70;99.90;;;;;;5119481;28;20435;-52
2022/12/08 01:35:27;;;;;;;5.43;2.93;;;2.70;99.90;;;;;;5119574;28;20425;-55
2022/12/08 01:37:54;;;;;;;5.80;3.13;;;2.70;99.90;;;;;;5119782;28;20492;-57
2022/12/08 01:40:21;;;;;;;5.30;3.03;;;2.80;99.90;;;;;;5118678;28;20437;-58
2022/12/08 01:42:49;;;;;;;4.13;2.90;;;2.80;99.90;;;;;;5119424;28;20430;-59
2022/12/08 01:45:23;;;;;;;8.03;3.30;;;2.70;99.90;;;;;;5108719;28;20454;-58
2022/12/08 01:47:55;;;;;;;5.27;2.90;;;2.80;99.90;;;;;;5098912;28;20418;-53
2022/12/08 01:50:23;;;;;;;12.93;3.67;;;2.80;99.90;;;;;;5099440;28;20441;-48
2022/12/08 01:52:53;;;;;;;4.93;2.93;;;2.80;99.90;;;;;;5098655;28;20445;-56
2022/12/08 01:55:29;;;;;;;4.90;3.57;;;2.80;99.90;;;;;;5098598;28;20464;-58
2022/12/08 01:58:02;;;;;;;6.67;2.93;;;2.80;99.90;;;;;;5097537;28;20580;-55
2022/12/08 02:00:29;;;;;;;5.60;2.97;;;2.80;99.90;;;;;;5098941;28;20441;-55
2022/12/08 02:02:58;;;;;;;7.20;3.30;;;2.70;99.90;;;;;;5099093;28;20426;-54
2022/12/08 02:05:33;;;;;;;2.57;2.27;;;2.70;99.90;;;;;;5098825;28;20469;-55
2022/12/08 02:08:05;;;;;;;23.43;4.80;;;2.60;99.90;;;;;;5097663;28;20481;-59
2022/12/08 02:10:37;;;;;;;6.87;3.93;;;2.60;99.90;;;;;;5097914;28;20446;-58
2022/12/08 02:13:06;;;;;;;6.17;3.33;;;2.70;99.90;;;;;;5097483;28;20478;-60
2022/12/08 02:15:40;;;;;;;8.50;2.43;;;2.60;99.90;;;;;;5097707;28;20431;-60
2022/12/08 02:18:22;;;;;;;8.00;3.77;;;2.60;99.90;;;;;;5098004;28;20473;-54
2022/12/08 02:20:58;;;;;;;12.30;2.67;;;2.60;99.90;;;;;;5097518;28;20477;-57
2022/12/08 02:23:33;;;;;;;5.70;2.17;;;2.60;99.90;;;;;;5097105;28;20494;-56
2022/12/08 02:26:21;;;;;;;2.70;2.30;;;2.60;99.90;;;;;;5096902;28;20437;-56
2022/12/08 02:29:12;;;;;;;5.93;2.47;;;2.60;99.90;;;;;;5095759;28;20466;-56
2022/12/08 02:31:50;;;;;;;6.93;3.00;;;2.70;99.90;;;;;;5096715;28;20447;-57
2022/12/08 02:34:27;;;;;;;5.10;2.30;;;2.70;99.90;;;;;;5095907;28;20512;-56
2022/12/08 02:37:02;;;;;;;4.40;2.10;;;2.70;99.90;;;;;;5096135;28;20453;-55
2022/12/08 02:39:37;;;;;;;5.17;2.77;;;2.70;99.90;;;;;;5098065;28;20475;-56
2022/12/08 02:42:12;;;;;;;5.43;2.67;;;2.60;99.90;;;;;;5116185;28;20457;-58
2022/12/08 02:44:44;;;;;;;3.53;2.80;;;2.60;99.90;;;;;;5116710;28;20488;-58
2022/12/08 02:47:15;;;;;;;4.90;2.83;;;2.50;99.90;;;;;;5117141;28;20441;-57
2022/12/08 02:49:43;;;;;;;3.97;2.20;;;2.50;99.90;;;;;;5116049;28;20460;-58
2022/12/08 02:52:41;;;;;;;2.40;1.57;;;2.50;99.90;;;;;;5116353;28;20483;-59
2022/12/08 02:55:14;;;;;;;4.27;2.50;;;2.50;99.90;;;;;;5116217;28;20445;-57
2022/12/08 02:57:58;;;;;;;3.20;2.33;;;2.50;99.90;;;;;;5116542;28;20469;-57
2022/12/08 03:00:27;;;;;;;2.70;1.87;;;2.50;99.90;;;;;;5117048;28;20430;-56
2022/12/08 03:03:10;;;;;;;2.80;1.90;;;2.40;99.90;;;;;;5117343;28;20463;-51
2022/12/08 03:05:56;;;;;;;3.13;2.00;;;2.40;99.90;;;;;;5116931;28;20422;-56
2022/12/08 03:08:32;;;;;;;3.73;2.40;;;2.40;99.90;;;;;;5116687;28;20422;-53
2022/12/08 03:11:03;;;;;;;4.53;2.40;;;2.40;99.90;;;;;;5112697;28;20456;-58
2022/12/08 03:13:38;;;;;;;4.10;2.40;;;2.40;99.90;;;;;;5117639;28;20471;-54
2022/12/08 03:16:10;;;;;;;2.60;2.13;;;2.40;99.90;;;;;;5117884;28;20445;-55
2022/12/08 03:18:42;;;;;;;3.07;2.60;;;2.40;99.90;;;;;;5111031;28;20509;-54
2022/12/08 03:21:13;;;;;;;6.20;2.03;;;2.40;99.90;;;;;;5117925;28;20413;-52
2022/12/08 03:23:42;;;;;;;3.33;2.57;;;2.40;99.90;;;;;;5116667;28;20452;-53
2022/12/08 03:26:14;;;;;;;5.33;2.80;;;2.40;99.90;;;;;;5116341;28;20524;-55
2022/12/08 03:28:47;;;;;;;3.77;2.67;;;2.40;99.90;;;;;;5104968;28;20441;-57
2022/12/08 03:31:15;;;;;;;2.60;1.40;;;2.40;99.90;;;;;;5115956;28;20489;-54
2022/12/08 03:33:49;;;;;;;7.70;1.97;;;2.40;99.90;;;;;;5116030;28;20421;-57
2022/12/08 03:36:19;;;;;;;5.17;2.50;;;2.40;99.90;;;;;;5115952;28;20441;-56
2022/12/08 03:38:51;;;;;;;5.87;2.67;;;2.40;99.90;;;;;;5116130;28;20520;-53
2022/12/08 03:41:20;;;;;;;4.07;2.40;;;2.40;99.90;;;;;;5115411;28;20441;-56
2022/12/08 03:43:49;;;;;;;4.90;2.13;;;2.40;99.90;;;;;;5115500;28;20437;-54
2022/12/08 03:46:17;;;;;;;4.43;2.60;;;2.40;99.90;;;;;;5115565;28;20469;-52
2022/12/08 03:48:44;;;;;;;2.87;2.27;;;2.40;99.90;;;;;;5108153;28;20477;-57
2022/12/08 03:51:11;;;;;;;2.37;1.77;;;2.40;99.90;;;;;;5115085;28;20473;-55
2022/12/08 03:53:40;;;;;;;8.13;3.03;;;2.30;99.90;;;;;;5113796;28;20437;-54
2022/12/08 03:56:18;;;;;;;4.00;2.73;;;2.40;99.90;;;;;;5114824;28;20469;-58
2022/12/08 03:58:45;;;;;;;6.27;4.00;;;2.30;99.90;;;;;;5112365;28;20510;-48
2022/12/08 04:01:13;;;;;;;6.03;2.87;;;2.40;99.90;;;;;;5113820;28;20457;-53
2022/12/08 04:03:40;;;;;;;5.70;2.80;;;2.40;99.90;;;;;;5113987;28;20421;-55
2022/12/08 04:06:07;;;;;;;3.87;3.30;;;2.40;99.90;;;;;;5113803;28;20452;-52
2022/12/08 04:08:35;;;;;;;5.03;3.10;;;2.40;99.90;;;;;;5113953;28;20445;-56
2022/12/08 04:11:05;;;;;;;8.93;3.07;;;2.40;99.90;;;;;;5107514;28;20442;-56
2022/12/08 04:13:32;;;;;;;5.57;3.63;;;2.40;99.90;;;;;;5110057;28;20465;-56
2022/12/08 04:15:59;;;;;;;8.30;3.80;;;2.40;99.90;;;;;;5113590;28;20459;-57
2022/12/08 04:18:27;;;;;;;8.13;5.00;;;2.40;99.90;;;;;;5113960;28;20488;-56
2022/12/08 04:20:54;;;;;;;6.37;3.63;;;2.50;99.90;;;;;;5114923;28;20453;-57
2022/12/08 04:23:24;;;;;;;6.63;4.30;;;2.50;99.90;;;;;;5114489;28;20445;-58
2022/12/08 04:25:52;;;;;;;6.33;4.03;;;2.40;99.90;;;;;;5114702;28;20914;-54
2022/12/08 04:28:20;;;;;;;5.03;2.63;;;2.40;99.90;;;;;;5115384;28;20425;-52
2022/12/08 04:30:52;;;;;;;7.83;4.80;;;2.40;99.90;;;;;;5114713;28;20436;-54
2022/12/08 04:33:19;;;;;;;4.97;3.47;;;2.50;99.90;;;;;;5115127;28;20464;-52
2022/12/08 04:35:46;;;;;;;6.60;4.23;;;2.50;99.90;;;;;;5114651;28;20473;-55
2022/12/08 04:38:13;;;;;;;8.17;4.30;;;2.50;99.90;;;;;;5114706;28;20549;-55
2022/12/08 04:40:40;;;;;;;8.37;4.70;;;2.60;99.90;;;;;;5111913;28;20493;-58
2022/12/08 04:43:07;;;;;;;10.07;4.37;;;2.50;99.90;;;;;;5111505;28;20449;-57
2022/12/08 04:45:35;;;;;;;6.57;4.87;;;2.50;99.90;;;;;;5114935;28;20461;-54
2022/12/08 04:48:02;;;;;;;7.90;5.20;;;2.50;99.90;;;;;;5107427;28;20465;-53
2022/12/08 04:50:29;;;;;;;8.60;4.00;;;2.50;99.90;;;;;;5114728;28;20447;-54
2022/12/08 04:52:56;;;;;;;4.83;3.00;;;2.50;99.90;;;;;;5112590;28;20476;-51
2022/12/08 04:55:29;;;;;;;7.83;4.50;;;2.60;99.90;;;;;;5118774;28;20448;-54
2022/12/08 04:57:56;;;;;;;5.73;4.13;;;2.60;99.90;;;;;;5118461;28;20461;-55
2022/12/08 05:00:26;;;;;;;8.83;4.10;;;2.60;99.90;;;;;;5118729;28;20472;-52
2022/12/08 05:02:54;;;;;;;6.53;5.33;;;2.60;99.90;;;;;;5114085;28;20472;-55
2022/12/08 05:05:21;;;;;;;10.93;5.70;;;2.50;99.90;;;;;;5119014;28;20437;-58
2022/12/08 05:07:48;;;;;;;11.83;4.60;;;2.50;99.90;;;;;;5118485;28;20433;-55
2022/12/08 05:10:15;;;;;;;10.07;4.73;;;2.50;99.90;;;;;;5113259;28;20448;-56
2022/12/08 05:12:42;;;;;;;6.20;3.60;;;2.50;99.90;;;;;;5115347;28;20445;-56
2022/12/08 05:15:11;;;;;;;9.33;5.10;;;2.50;99.90;;;;;;5117522;28;20469;-54
2022/12/08 05:17:38;;;;;;;16.03;6.40;;;2.40;99.90;;;;;;5118321;28;20490;-55
2022/12/08 05:20:08;;;;;;;11.47;4.67;;;2.40;99.90;;;;;;5118135;28;20499;-53
2022/12/08 05:22:38;;;;;;;7.83;4.53;;;2.50;99.90;;;;;;5110711;28;20433;-56
2022/12/08 05:25:05;;;;;;;12.20;4.87;;;2.50;99.90;;;;;;5111413;28;20461;-51
2022/12/08 05:27:32;;;;;;;7.67;4.80;;;2.50;99.90;;;;;;5118656;28;20921;-57
2022/12/08 05:29:59;;;;;;;5.70;3.50;;;2.60;99.90;;;;;;5115873;28;20433;-54
2022/12/08 05:32:28;;;;;;;7.27;5.33;;;2.60;99.90;;;;;;5115112;28;20445;-54
2022/12/08 05:34:54;;;;;;;11.53;5.10;;;2.70;99.90;;;;;;5115836;28;20480;-57
2022/12/08 05:37:23;;;;;;;9.20;5.37;;;2.80;99.90;;;;;;5115419;28;20465;-58
2022/12/08 05:39:50;;;;;;;8.33;4.50;;;2.80;99.90;;;;;;5113926;28;20453;-57
2022/12/08 05:42:17;;;;;;;8.40;4.40;;;2.80;99.90;;;;;;5118248;28;20461;-58
2022/12/08 05:44:44;;;;;;;10.33;4.80;;;2.90;99.90;;;;;;5118010;28;20448;-58
2022/12/08 05:47:11;;;;;;;8.43;5.17;;;2.90;99.90;;;;;;5118150;28;20445;-53
2022/12/08 05:49:41;;;;;;;8.37;4.83;;;3.00;99.90;;;;;;5117917;28;20463;-54
2022/12/08 05:52:09;;;;;;;9.20;4.70;;;3.00;99.90;;;;;;5117943;28;20430;-56
2022/12/08 05:54:38;;;;;;;14.03;5.43;;;2.90;99.90;;;;;;5117647;28;20449;-57
2022/12/08 05:57:05;;;;;;;8.70;5.70;;;3.00;99.90;;;;;;5117813;28;20476;-52
2022/12/08 05:59:37;;;;;;;11.57;5.20;;;3.00;99.90;;;;;;5117569;28;20511;-55
2022/12/08 06:02:04;;;;;;;12.10;4.50;;;3.10;99.90;;;;;;5117399;28;20449;-55
2022/12/08 06:04:31;;;;;;;14.97;4.23;;;3.10;99.90;;;;;;5116825;28;20470;-54
2022/12/08 06:06:58;;;;;;;9.50;5.90;;;3.10;99.90;;;;;;5117741;28;20450;-55
2022/12/08 06:09:24;;;;;;;11.60;5.40;;;3.10;99.90;;;;;;5113965;28;20438;-56
2022/12/08 06:11:53;;;;;;;10.17;5.30;;;3.10;99.90;;;;;;5113188;28;21027;-57
2022/12/08 06:14:20;;;;;;;9.63;5.60;;;3.10;99.90;;;;;;5116417;28;20446;-53
2022/12/08 06:16:46;;;;;;;8.47;4.90;;;3.10;99.90;;;;;;5117482;28;20480;-56
2022/12/08 06:19:14;;;;;;;8.73;5.80;;;3.20;99.90;;;;;;5113427;28;20473;-49
2022/12/08 06:21:42;;;;;;;10.33;4.63;;;3.20;99.90;;;;;;5117360;28;20457;-54
2022/12/08 06:24:10;;;;;;;12.40;7.30;;;3.10;99.90;;;;;;5117089;28;20438;-56
2022/12/08 06:26:39;;;;;;;11.00;5.60;;;3.20;99.90;;;;;;5117240;28;20434;-52
2022/12/08 06:29:07;;;;;;;7.27;5.10;;;3.10;99.90;;;;;;5117587;28;20464;-54
2022/12/08 06:31:37;;;;;;;12.03;5.87;;;3.20;99.90;;;;;;5117704;28;20463;-50
2022/12/08 06:34:05;;;;;;;10.50;5.20;;;3.10;99.90;;;;;;5117232;28;20437;-56
2022/12/08 06:36:33;;;;;;;9.83;5.43;;;3.20;99.90;;;;;;5117450;28;20434;-53
2022/12/08 06:39:00;;;;;;;15.53;5.87;;;3.20;99.90;;;;;;5110801;28;20568;-55
2022/12/08 06:41:27;;;;;;;10.07;5.43;;;3.20;99.90;;;;;;5110967;28;20450;-55
2022/12/08 06:43:56;;;;;;;9.30;5.33;;;3.20;99.90;;;;;;5116856;28;20469;-56
2022/12/08 06:46:24;;;;;;;6.60;5.23;;;3.20;99.90;;;;;;5116869;28;20437;-56
2022/12/08 06:48:51;;;;;;;8.03;4.77;;;3.20;99.90;;;;;;5116583;28;20455;-56
2022/12/08 06:51:22;;;;;;;10.17;4.50;;;3.10;99.90;;;;;;5116655;28;20430;-56
2022/12/08 06:53:49;;;;;;;10.57;6.03;;;3.10;99.90;;;;;;5117027;28;20426;-57
2022/12/08 06:56:18;;;;;;;7.97;5.00;;;3.10;99.90;;;;;;5116515;28;20425;-56
2022/12/08 06:58:48;;;;;;;12.33;5.77;;;3.20;99.90;;;;;;5116454;28;20465;-55
2022/12/08 07:01:15;;;;;;;10.13;4.93;;;3.10;99.90;;;;;;5116409;28;20496;-55
2022/12/08 07:03:43;;;;;;;9.40;4.60;;;3.10;99.90;;;;;;5116329;28;20448;-56
2022/12/08 07:06:16;;;;;;;5.57;3.77;;;3.10;99.90;;;;;;5106386;28;20450;-54
2022/12/08 07:08:45;;;;;;;6.50;4.33;;;3.20;99.90;;;;;;5096132;28;20490;-55
2022/12/08 07:11:13;;;;;;;13.13;5.87;;;3.20;99.90;;;;;;5095681;28;20450;-54
2022/12/08 07:13:39;;;;;;;10.63;5.40;;;3.20;99.90;;;;;;5095596;28;20438;-56
2022/12/08 07:16:08;;;;;;;10.10;5.63;;;3.20;99.90;;;;;;5095629;28;20439;-56
2022/12/08 07:18:35;;;;;;;9.40;5.37;;;3.20;99.90;;;;;;5095899;28;20513;-55
2022/12/08 07:21:08;;;;;;;9.20;5.73;;;3.20;99.90;;;;;;5095580;28;20438;-57
2022/12/08 07:23:36;;;;;;;8.80;5.00;;;3.30;99.90;;;;;;5095542;28;20459;-58
2022/12/08 07:26:04;;;;;;;14.27;5.03;;;3.30;99.90;;;;;;5095464;28;20431;-52
2022/12/08 07:28:32;;;;;;;8.20;5.60;;;3.30;99.90;;;;;;5095917;28;20474;-57
2022/12/08 07:30:59;;;;;;;9.50;4.97;;;3.20;99.90;;;;;;5095512;28;20454;-56
2022/12/08 07:33:26;;;;;;;8.10;4.20;;;3.30;99.90;;;;;;5095478;28;20442;-53
2022/12/08 07:35:57;;;;;;;8.07;4.73;;;3.30;99.90;;;;;;5110191;28;20445;-55
2022/12/08 07:38:26;;;;;;;10.50;6.77;;;3.20;99.90;;;;;;5116087;28;20456;-62
2022/12/08 07:40:53;;;;;;;10.70;5.77;;;3.20;99.90;;;;;;5116360;28;20456;-57
2022/12/08 07:43:21;;;;;;;11.73;6.20;;;3.30;99.90;;;;;;5115800;28;20465;-53
2022/12/08 07:45:49;;;;;;;9.93;5.10;;;3.30;99.90;;;;;;5115659;28;20457;-55
2022/12/08 07:48:16;;;;;;;11.63;5.57;;;3.30;99.90;;;;;;5115918;28;20445;-60
2022/12/08 07:50:43;;;;;;;7.10;5.20;;;3.30;99.90;;;;;;5115742;28;20449;-59
2022/12/08 07:53:13;;;;;;;12.00;4.67;;;3.40;99.90;;;;;;5116736;28;20446;-49
2022/12/08 07:55:42;;;;;;;8.53;5.33;;;3.40;99.90;;;;;;5115757;28;20469;-52
2022/12/08 07:58:12;;;;;;;10.63;4.77;;;3.50;99.90;;;;;;5116126;28;20430;-53
2022/12/08 08:00:39;;;;;;;11.80;5.83;;;3.50;99.90;;;;;;5115372;28;20515;-55
2022/12/08 08:03:07;;;;;;;9.77;6.30;;;3.50;99.90;;;;;;5115164;28;20503;-56
2022/12/08 08:05:34;;;;;;;12.07;5.07;;;3.60;99.90;;;;;;5115223;28;20503;-54
2022/12/08 08:08:01;;;;;;;9.93;5.90;;;3.60;99.90;;;;;;5109141;28;20446;-56
2022/12/08 08:10:28;;;;;;;13.63;6.00;;;3.60;99.90;;;;;;5115321;28;20534;-50
2022/12/08 08:12:58;;;;;;;12.67;6.03;;;3.60;99.90;;;;;;5115351;28;20456;-54
2022/12/08 08:15:27;;;;;;;9.00;4.63;;;3.70;99.90;;;;;;5114226;28;20549;-54
2022/12/08 08:17:54;;;;;;;9.67;5.47;;;3.70;99.90;;;;;;5115145;28;20573;-53
2022/12/08 08:20:21;;;;;;;10.73;5.00;;;3.70;99.90;;;;;;5115589;28;20473;-54
2022/12/08 08:22:49;;;;;;;11.33;4.70;;;3.70;99.90;;;;;;5115127;28;20477;-51
2022/12/08 08:25:18;;;;;;;8.50;5.30;;;3.70;99.90;;;;;;5115438;28;20438;-51
2022/12/08 08:27:45;;;;;;;8.83;4.80;;;3.70;99.90;;;;;;5114870;28;20469;-59
2022/12/08 08:30:15;;;;;;;10.57;4.80;;;3.70;99.90;;;;;;5115646;28;20532;-56
2022/12/08 08:32:43;;;;;;;13.67;5.70;;;3.70;99.90;;;;;;5115359;28;20463;-52
2022/12/08 08:35:10;;;;;;;8.57;5.67;;;3.70;99.90;;;;;;5114902;28;20441;-57
2022/12/08 08:37:37;;;;;;;7.70;5.40;;;3.70;99.90;;;;;;5114970;28;20463;-54
2022/12/08 08:40:05;;;;;;;17.57;5.50;;;3.80;99.90;;;;;;5114983;28;20519;-52
2022/12/08 08:42:32;;;;;;;8.07;4.00;;;3.70;99.90;;;;;;5115326;28;20433;-50
2022/12/08 08:44:59;;;;;;;19.40;7.70;;;4.60;99.90;;;;;;5114855;28;20458;-55
2022/12/08 08:47:27;;;;;;;17.53;8.80;;;5.70;99.90;;;;;;5113952;28;20454;-50
2022/12/08 08:49:57;;;;;;;15.80;8.20;;;5.50;99.90;;;;;;5114051;28;20557;-50
2022/12/08 08:52:24;;;;;;;24.40;8.00;;;5.20;99.90;;;;;;5114154;28;20418;-55
2022/12/08 08:54:50;;;;;;;32.33;9.87;;;5.00;99.90;;;;;;5114490;28;20620;-54
2022/12/08 08:57:17;;;;;;;23.77;9.70;;;4.80;99.90;;;;;;5114408;28;20446;-55
2022/12/08 08:59:44;;;;;;;14.40;8.37;;;4.60;99.90;;;;;;5114638;28;20485;-56
2022/12/08 09:02:18;;;;;;;18.97;8.17;;;4.50;99.90;;;;;;5114238;28;20473;-51
2022/12/08 09:04:47;;;;;;;12.70;4.90;;;4.40;99.90;;;;;;5114758;28;20435;-55
2022/12/08 09:07:14;;;;;;;8.27;5.80;;;4.30;99.90;;;;;;5114524;28;20465;-51
2022/12/08 09:09:41;;;;;;;15.23;6.77;;;4.30;99.90;;;;;;5114211;28;20453;-58
2022/12/08 09:12:08;;;;;;;13.10;7.10;;;4.30;99.90;;;;;;5114417;28;20437;-57
2022/12/08 09:14:37;;;;;;;9.37;5.33;;;4.30;99.90;;;;;;5114403;28;20496;-55
2022/12/08 09:17:04;;;;;;;11.30;6.57;;;4.30;99.90;;;;;;5114760;28;20484;-54
2022/12/08 09:19:31;;;;;;;15.50;5.90;;;4.30;99.90;;;;;;5114296;28;20484;-51
2022/12/08 09:22:00;;;;;;;16.30;7.80;;;4.30;99.90;;;;;;5113966;28;20445;-51
2022/12/08 09:24:27;;;;;;;13.00;7.10;;;4.30;99.90;;;;;;5113692;28;20469;-57
2022/12/08 09:26:56;;;;;;;12.93;6.33;;;4.30;99.90;;;;;;5114299;28;20466;-52
2022/12/08 09:29:24;;;;;;;10.50;5.70;;;4.30;99.90;;;;;;5107680;28;20493;-54
2022/12/08 09:31:53;;;;;;;12.73;6.17;;;4.40;99.90;;;;;;5109455;28;20442;-52
2022/12/08 09:34:23;;;;;;;10.03;5.20;;;4.50;99.90;;;;;;5114754;28;20441;-59
2022/12/08 09:36:51;;;;;;;14.17;8.70;;;4.50;99.90;;;;;;5114644;28;20441;-57
2022/12/08 09:39:22;;;;;;;10.00;6.10;;;4.60;99.90;;;;;;5116079;28;20476;-54
2022/12/08 09:41:56;;;;;;;10.47;5.67;;;4.60;99.90;;;;;;5109490;28;20461;-55
2022/12/08 09:44:56;;;;;;;10.10;6.47;;;4.70;99.90;;;;;;5117541;28;20408;-49
2022/12/08 09:47:27;;;;;;;11.53;5.67;;;4.60;99.90;;;;;;5114794;28;20469;-56
2022/12/08 09:50:02;;;;;;;10.27;6.20;;;4.60;99.90;;;;;;5115345;28;20418;-51
2022/12/08 09:52:41;;;;;;;11.20;6.33;;;5.50;99.90;;;;;;5116825;28;20468;-56
2022/12/08 09:55:17;;;;;;;16.13;7.33;;;5.80;99.90;;;;;;5116011;28;20443;-53
2022/12/08 09:57:44;;;;;;;14.23;7.90;;;5.90;99.90;;;;;;5115607;28;20469;-57
2022/12/08 10:00:16;;;;;;;10.83;6.33;;;5.80;99.90;;;;;;5116308;28;20482;-54
2022/12/08 10:02:47;;;;;;;11.43;7.00;;;5.60;99.90;;;;;;5116774;28;20425;-56
2022/12/08 10:05:14;;;;;;;14.10;6.93;;;5.50;99.90;;;;;;5117217;28;20516;-55
2022/12/08 10:07:48;;;;;;;6.70;5.07;;;5.40;99.90;;;;;;5117132;28;20457;-53
2022/12/08 10:10:34;;;;;;;11.43;6.70;;;5.30;99.90;;;;;;5116641;28;20437;-49
2022/12/08 10:13:06;;;;;;;17.77;6.07;;;5.20;99.90;;;;;;5091135;28;20415;-58
2022/12/08 10:15:41;;;;;;;22.53;7.57;;;5.20;99.90;;;;;;5098499;28;20441;-66
2022/12/08 10:18:16;;;;;;;10.73;5.60;;;5.10;99.90;;;;;;5097813;28;20418;-56
2022/12/08 10:20:46;;;;;;;10.27;6.57;;;5.10;99.90;;;;;;5097096;28;20485;-55
2022/12/08 10:23:25;;;;;;;8.70;5.03;;;5.10;99.90;;;;;;5096552;28;20430;-55
2022/12/08 10:26:01;;;;;;;7.07;4.50;;;5.10;99.90;;;;;;5097172;28;20422;-56
2022/12/08 10:28:28;;;;;;;9.43;5.37;;;5.00;99.90;;;;;;5104449;28;20460;-53
2022/12/08 10:30:56;;;;;;;6.07;4.20;;;4.90;99.90;;;;;;5116289;28;20480;-58
2022/12/08 10:33:27;;;;;;;13.93;5.07;;;4.90;99.90;;;;;;5116092;28;20460;-58
2022/12/08 10:36:01;;;;;;;10.87;7.23;;;4.70;99.90;;;;;;5116077;28;20461;-55
2022/12/08 10:38:31;;;;;;;8.80;4.20;;;4.70;99.90;;;;;;5111680;28;20464;-57
2022/12/08 10:41:06;;;;;;;12.10;5.53;;;4.70;99.90;;;;;;5116114;28;20485;-54
2022/12/08 10:43:34;;;;;;;7.83;5.73;;;4.70;99.90;;;;;;5117246;28;20483;-53
2022/12/08 10:46:13;;;;;;;12.80;6.30;;;4.70;99.90;;;;;;5116868;28;20452;-51
2022/12/08 10:48:49;;;;;;;9.80;4.83;;;4.70;99.90;;;;;;5117040;28;20429;-53
2022/12/08 10:51:25;;;;;;;11.17;6.60;;;4.60;99.90;;;;;;5117359;28;20484;-54
2022/12/08 10:53:52;;;;;;;11.77;6.30;;;5.30;99.90;;;;;;5110378;28;20445;-52
2022/12/08 10:56:29;;;;;;;10.50;6.93;;;5.70;99.90;;;;;;5116608;28;20472;-57
2022/12/08 10:59:13;;;;;;;10.93;5.20;;;6.30;99.90;;;;;;5116879;28;20451;-53
2022/12/08 11:01:41;;;;;;;9.10;5.10;;;6.00;99.90;;;;;;5117149;28;20453;-52
2022/12/08 11:04:20;;;;;;;6.57;4.67;;;5.80;99.90;;;;;;5117699;28;20414;-60
2022/12/08 11:06:48;;;;;;;8.40;5.13;;;5.60;99.90;;;;;;5116644;28;20468;-63
2022/12/08 11:09:36;;;;;;;10.23;6.30;;;5.40;99.90;;;;;;5117019;28;20437;-54
2022/12/08 11:12:14;;;;;;;12.10;5.97;;;5.10;99.90;;;;;;5111887;28;20465;-56
2022/12/08 11:14:50;;;;;;;10.43;6.00;;;5.00;99.90;;;;;;5116845;28;20446;-56
2022/12/08 11:17:24;;;;;;;9.30;5.90;;;4.90;99.90;;;;;;5116722;28;20506;-56
2022/12/08 11:20:01;;;;;;;10.23;5.40;;;4.80;99.90;;;;;;5116709;28;20457;-58
2022/12/08 11:22:31;;;;;;;13.53;6.27;;;4.70;99.90;;;;;;5116269;28;20491;-56
2022/12/08 11:25:10;;;;;;;7.00;4.70;;;4.70;99.90;;;;;;5116472;28;20495;-55
2022/12/08 11:27:44;;;;;;;7.83;3.50;;;4.70;99.90;;;;;;5095508;28;20454;-55
2022/12/08 11:30:21;;;;;;;10.17;5.40;;;4.70;99.90;;;;;;5095480;28;20434;-52
2022/12/08 11:32:51;;;;;;;6.40;4.30;;;4.60;99.90;;;;;;5096248;28;20458;-58
2022/12/08 11:35:28;;;;;;;12.13;4.83;;;4.60;99.90;;;;;;5087195;28;20457;-54
2022/12/08 11:38:02;;;;;;;8.50;5.33;;;4.50;99.90;;;;;;5095291;28;20470;-57
2022/12/08 11:40:36;;;;;;;7.83;4.83;;;4.50;99.90;;;;;;5095005;28;20500;-53
2022/12/08 11:43:12;;;;;;;9.80;5.80;;;4.50;99.90;;;;;;5095596;28;20500;-53
2022/12/08 11:45:41;;;;;;;8.93;4.90;;;4.50;99.90;;;;;;5095227;28;20519;-57
2022/12/08 11:48:14;;;;;;;6.40;4.40;;;4.50;99.90;;;;;;5095384;28;20462;-57
2022/12/08 11:50:45;;;;;;;9.23;4.33;;;4.50;99.90;;;;;;5094994;28;20415;-54
2022/12/08 11:53:30;;;;;;;8.47;5.47;;;4.50;99.90;;;;;;5094454;28;20462;-53
2022/12/08 11:56:03;;;;;;;8.43;4.93;;;4.50;99.90;;;;;;5094983;28;20454;-55
2022/12/08 11:58:41;;;;;;;10.20;5.10;;;4.50;99.90;;;;;;5095033;28;20478;-59
2022/12/08 12:01:21;;;;;;;11.27;5.00;;;4.50;99.90;;;;;;5093880;28;20457;-55
2022/12/08 12:03:55;;;;;;;7.57;4.00;;;4.60;99.90;;;;;;5093219;28;20506;-50
2022/12/08 12:06:56;;;;;;;7.57;5.20;;;4.50;99.90;;;;;;5089809;28;20449;-47
2022/12/08 12:09:35;;;;;;;5.40;3.90;;;4.50;99.90;;;;;;5095196;28;20453;-52
2022/12/08 12:12:15;;;;;;;6.37;3.90;;;4.50;99.90;;;;;;5095623;28;20414;-49
2022/12/08 12:15:26;;;;;;;7.33;4.10;;;4.50;99.90;;;;;;5095470;28;20466;-48
2022/12/08 12:17:59;;;;;;;6.33;3.57;;;4.60;99.90;;;;;;5034212;28;20452;-48
2022/12/08 12:20:30;;;;;;;6.93;4.57;;;4.60;99.90;;;;;;5094915;28;20553;-51
2022/12/08 12:23:02;;;;;;;8.20;4.33;;;4.50;99.90;;;;;;5110158;28;20438;-52
2022/12/08 12:25:34;;;;;;;8.40;4.07;;;4.50;99.90;;;;;;5115473;28;20453;-49
2022/12/08 12:28:08;;;;;;;5.00;3.50;;;4.50;99.90;;;;;;5116432;28;20437;-49
2022/12/08 12:30:52;;;;;;;6.33;3.40;;;4.40;99.90;;;;;;5114097;28;20484;-53
2022/12/08 12:33:22;;;;;;;7.43;4.83;;;4.40;99.90;;;;;;5114542;28;20524;-50
2022/12/08 12:35:49;;;;;;;12.03;3.60;;;4.40;99.90;;;;;;5115667;28;20488;-47
2022/12/08 12:41:09;;;;;;;6.80;3.23;;;4.40;99.90;;;;;;5111847;28;20484;-51
2022/12/08 12:43:37;;;;;;;7.40;3.73;;;4.40;99.90;;;;;;5115544;28;20457;-47
2022/12/08 12:46:52;;;;;;;6.33;3.70;;;4.40;99.90;;;;;;5115419;28;20469;-50
2022/12/08 12:49:52;;;;;;;8.20;4.40;;;4.40;99.90;;;;;;5113023;28;20513;-49
2022/12/08 12:52:47;;;;;;;7.27;4.87;;;4.40;99.90;;;;;;5114711;28;20429;-50
2022/12/08 12:55:23;;;;;;;9.60;5.80;;;4.50;99.90;;;;;;5112932;28;20441;-48
2022/12/08 12:57:54;;;;;;;7.90;4.50;;;4.50;99.90;;;;;;5115266;28;20434;-56
2022/12/08 13:00:29;;;;;;;9.17;3.97;;;4.60;99.90;;;;;;5115265;28;20525;-45
2022/12/08 13:02:58;;;;;;;15.10;5.90;;;4.60;99.90;;;;;;5115198;28;20679;-56
2022/12/08 13:05:32;;;;;;;6.90;3.73;;;4.60;99.90;;;;;;5115051;28;20449;-49
2022/12/08 13:08:02;;;;;;;10.17;5.17;;;4.60;99.90;;;;;;5114751;28;20457;-55
2022/12/08 13:10:34;;;;;;;8.90;4.27;;;4.60;99.90;;;;;;5115206;28;20440;-51
2022/12/08 13:13:17;;;;;;;7.47;5.43;;;4.60;99.90;;;;;;5116821;28;20461;-52
2022/12/08 13:15:51;;;;;;;5.83;3.80;;;4.60;99.90;;;;;;5117096;28;20437;-50
2022/12/08 13:18:24;;;;;;;7.57;4.37;;;4.60;99.90;;;;;;5117901;28;20464;-49
2022/12/08 13:21:07;;;;;;;9.70;4.73;;;4.50;99.90;;;;;;5118554;28;20457;-50